createdAt,value
2022-11-03T00:02:40.217Z,72.39
2022-11-03T00:06:01.533Z,72.21
2022-11-03T00:09:07.284Z,72.95
2022-11-03T00:12:09.832Z,73.22
2022-11-03T00:15:12.047Z,73.64
2022-11-03T00:18:14.619Z,73.87
2022-11-03T00:21:17.309Z,74.11
2022-11-03T00:24:19.880Z,74.53
2022-11-03T00:27:22.061Z,74.79
2022-11-03T00:30:24.665Z,74.99
2022-11-03T00:33:27.847Z,75.34
2022-11-03T00:36:33.309Z,75.73
2022-11-03T00:39:35.536Z,75.93
2022-11-03T00:42:39.103Z,76.16
2022-11-03T00:45:41.561Z,76.55
2022-11-03T00:48:44.730Z,76.67
2022-11-03T00:51:46.966Z,76.79
2022-11-03T00:54:54.261Z,76.88
2022-11-03T00:57:57.643Z,76.45
2022-11-03T01:01:04.951Z,76.65
2022-11-03T01:04:26.666Z,76.70
2022-11-03T01:07:29.170Z,76.58
2022-11-03T01:10:31.401Z,76.23
2022-11-03T01:13:34.045Z,75.91
2022-11-03T01:16:36.459Z,75.75
2022-11-03T01:19:39.035Z,76.20
2022-11-03T01:22:41.248Z,76.38
2022-11-03T01:25:43.776Z,76.50
2022-11-03T01:28:47.599Z,76.28
2022-11-03T01:31:50.186Z,75.35
2022-11-03T01:34:53.442Z,73.51
2022-11-03T01:37:56.663Z,72.33
2022-11-03T01:40:59.506Z,71.51
2022-11-03T01:44:07.975Z,70.92
2022-11-03T01:47:32.738Z,70.37
2022-11-03T01:50:35.540Z,70.21
2022-11-03T01:53:42.523Z,70.48
2022-11-03T01:56:46.942Z,70.32
2022-11-03T01:59:50.046Z,70.18
2022-11-03T02:02:54.393Z,70.33
2022-11-03T02:05:57.132Z,70.48
2022-11-03T02:09:02.828Z,70.72
2022-11-03T02:12:07.105Z,71.01
2022-11-03T02:15:12.494Z,71.24
2022-11-03T02:18:18.355Z,71.23
2022-11-03T02:21:31.289Z,71.68
2022-11-03T02:24:54.307Z,71.76
2022-11-03T02:27:56.918Z,72.14
2022-11-03T02:31:17.948Z,72.35
2022-11-03T02:34:40.587Z,72.77
2022-11-03T02:37:48.955Z,73.03
2022-11-03T02:40:55.600Z,73.21
2022-11-03T02:43:58.960Z,73.47
2022-11-03T02:47:05.962Z,73.20
2022-11-03T02:50:10.554Z,73.21
2022-11-03T02:53:14.379Z,73.26
2022-11-03T02:56:24.785Z,72.54
2022-11-03T02:59:35.019Z,72.54
2022-11-03T03:03:05.274Z,72.63
2022-11-03T03:06:12.156Z,72.88
2022-11-03T03:09:25.841Z,71.46
2022-11-03T03:12:28.692Z,71.39
2022-11-03T03:15:42.402Z,71.77
2022-11-03T03:19:35.424Z,70.70
2022-11-03T03:22:46.308Z,71.77
2022-11-03T03:26:07.782Z,73.65
2022-11-03T03:29:25.012Z,74.43
2022-11-03T03:32:30.840Z,75.05
2022-11-03T03:35:36.634Z,75.51
2022-11-03T03:38:44.540Z,75.65
2022-11-03T03:41:48.503Z,76.04
2022-11-03T03:44:52.844Z,76.25
2022-11-03T03:47:57.777Z,76.38
2022-11-03T03:51:02.048Z,76.53
2022-11-03T03:54:04.585Z,76.74
2022-11-03T03:57:10.819Z,76.95
2022-11-03T04:00:16.054Z,77.27
2022-11-03T04:03:20.923Z,77.40
2022-11-03T04:06:23.152Z,77.54
2022-11-03T04:09:25.771Z,77.53
2022-11-03T04:12:46.604Z,77.64
2022-11-03T04:15:52.259Z,77.32
2022-11-03T04:19:12.935Z,76.91
2022-11-03T04:22:18.057Z,76.97
2022-11-03T04:25:20.292Z,77.14
2022-11-03T04:28:22.894Z,77.18
2022-11-03T04:31:26.686Z,77.07
2022-11-03T04:34:29.186Z,77.56
2022-11-03T04:37:31.429Z,77.70
2022-11-03T04:40:34.065Z,77.95
2022-11-03T04:43:38.624Z,78.38
2022-11-03T04:46:41.308Z,78.62
2022-11-03T04:49:44.853Z,78.60
2022-11-03T04:52:58.412Z,78.73
2022-11-03T04:56:07.035Z,78.55
2022-11-03T04:59:14.634Z,78.52
2022-11-03T05:02:20.222Z,78.22
2022-11-03T05:05:25.556Z,78.43
2022-11-03T05:08:27.799Z,78.92
2022-11-03T05:11:39.983Z,79.17
2022-11-03T05:14:42.283Z,79.27
2022-11-03T05:17:44.829Z,79.25
2022-11-03T05:21:01.438Z,79.28
2022-11-03T05:24:11.648Z,79.27
2022-11-03T05:27:21.569Z,79.09
2022-11-03T05:30:24.632Z,79.13
2022-11-03T05:33:29.340Z,79.04
2022-11-03T05:36:33.363Z,79.13
2022-11-03T05:39:43.333Z,79.32
2022-11-03T05:42:47.047Z,79.33
2022-11-03T05:45:52.662Z,79.60
2022-11-03T05:48:55.493Z,79.53
2022-11-03T05:51:57.669Z,79.25
2022-11-03T05:55:02.054Z,79.18
2022-11-03T05:58:40.905Z,79.22
2022-11-03T06:01:43.785Z,78.69
2022-11-03T06:04:46.348Z,78.71
2022-11-03T06:07:50.776Z,78.50
2022-11-03T06:10:55.719Z,79.59
2022-11-03T06:13:58.945Z,80.02
2022-11-03T06:17:07.343Z,80.25
2022-11-03T06:20:18.405Z,80.13
2022-11-03T06:23:21.538Z,80.16
2022-11-03T06:26:27.142Z,79.82
2022-11-03T06:29:33.572Z,79.66
2022-11-03T06:32:35.806Z,79.35
2022-11-03T06:35:38.362Z,79.20
2022-11-03T06:38:40.625Z,78.93
2022-11-03T06:41:43.137Z,78.68
2022-11-03T06:44:48.271Z,78.53
2022-11-03T06:47:53.318Z,78.04
2022-11-03T06:50:58.271Z,77.64
2022-11-03T06:54:01.563Z,77.06
2022-11-03T06:57:12.504Z,76.26
2022-11-03T07:00:34.181Z,75.87
2022-11-03T07:03:38.087Z,75.03
2022-11-03T07:06:42.946Z,74.15
2022-11-03T07:09:45.153Z,73.74
2022-11-03T07:12:47.670Z,73.44
2022-11-03T07:15:50.382Z,73.36
2022-11-03T07:18:52.935Z,73.62
2022-11-03T07:21:58.939Z,73.92
2022-11-03T07:25:04.153Z,74.25
2022-11-03T07:28:06.630Z,74.63
2022-11-03T07:31:17.161Z,75.18
2022-11-03T07:34:23.758Z,75.17
2022-11-03T07:37:26.321Z,75.01
2022-11-03T07:40:31.853Z,74.94
2022-11-03T07:43:35.996Z,75.10
2022-11-03T07:46:38.353Z,75.14
2022-11-03T07:49:41.607Z,75.26
2022-11-03T07:52:43.942Z,75.81
2022-11-03T07:55:47.230Z,76.37
2022-11-03T07:58:54.217Z,76.76
2022-11-03T08:01:58.581Z,76.97
2022-11-03T08:05:02.026Z,77.50
2022-11-03T08:08:04.722Z,77.40
2022-11-03T08:11:07.590Z,78.46
2022-11-03T08:14:10.594Z,78.48
2022-11-03T08:17:14.641Z,79.19
2022-11-03T08:20:16.958Z,79.03
2022-11-03T08:23:25.572Z,79.43
2022-11-03T08:26:28.808Z,79.64
2022-11-03T08:29:31.363Z,79.75
2022-11-03T08:32:33.767Z,80.64
2022-11-03T08:35:36.346Z,80.25
2022-11-03T08:38:38.897Z,80.36
2022-11-03T08:41:41.499Z,80.44
2022-11-03T08:44:43.716Z,80.66
2022-11-03T08:47:46.537Z,80.57
2022-11-03T08:50:50.477Z,81.22
2022-11-03T08:53:55.601Z,80.58
2022-11-03T08:56:57.823Z,80.98
2022-11-03T09:00:00.435Z,81.79
2022-11-03T09:03:02.870Z,81.46
2022-11-03T09:06:05.822Z,81.17
2022-11-03T09:12:30.606Z,81.25
2022-11-03T09:15:33.047Z,81.94
2022-11-03T09:18:35.705Z,82.18
2022-11-03T09:21:37.945Z,82.22
2022-11-03T09:24:40.528Z,81.96
2022-11-03T09:27:42.808Z,81.83
2022-11-03T09:30:45.324Z,82.41
2022-11-03T09:33:47.579Z,82.32
2022-11-03T09:36:53.227Z,82.04
2022-11-03T09:39:55.755Z,82.07
2022-11-03T09:42:58.341Z,81.96
2022-11-03T09:46:00.580Z,81.65
2022-11-03T09:49:05.055Z,81.51
2022-11-03T09:52:07.356Z,81.36
2022-11-03T09:55:19.031Z,81.41
2022-11-03T09:58:21.306Z,82.12
2022-11-03T10:01:24.098Z,81.75
2022-11-03T10:04:28.920Z,81.82
2022-11-03T10:07:31.332Z,81.85
2022-11-03T10:10:35.643Z,82.30
2022-11-03T10:13:41.155Z,82.19
2022-11-03T10:16:53.399Z,82.07
2022-11-03T10:19:58.156Z,82.32
2022-11-03T10:23:00.682Z,82.32
2022-11-03T10:26:11.701Z,82.34
2022-11-03T10:29:35.920Z,82.21
2022-11-03T10:32:41.554Z,82.00
2022-11-03T10:35:44.207Z,82.35
2022-11-03T10:38:47.978Z,82.72
2022-11-03T10:41:58.965Z,82.76
2022-11-03T10:45:16.553Z,82.53
2022-11-03T10:48:19.049Z,82.06
2022-11-03T10:51:21.311Z,82.43
2022-11-03T10:54:24.693Z,82.28
2022-11-03T10:57:28.067Z,82.66
2022-11-03T11:00:30.590Z,82.79
2022-11-03T11:03:35.005Z,83.08
2022-11-03T11:06:40.365Z,83.35
2022-11-03T11:09:42.708Z,83.68
2022-11-03T11:13:12.694Z,83.54
2022-11-03T11:16:48.587Z,83.37
2022-11-03T11:20:22.676Z,82.96
2022-11-03T11:23:27.910Z,83.39
2022-11-03T11:26:34.839Z,83.99
2022-11-03T11:29:37.114Z,83.85
2022-11-03T11:32:39.538Z,83.75
2022-11-03T11:35:41.683Z,83.32
2022-11-03T11:38:52.312Z,83.26
2022-11-03T11:42:17.909Z,82.88
2022-11-03T11:45:58.877Z,82.91
2022-11-03T11:49:03.817Z,82.38
2022-11-03T11:52:10.499Z,82.17
2022-11-03T11:55:48.133Z,82.02
2022-11-03T11:58:53.740Z,81.81
2022-11-03T12:01:57.603Z,81.97
2022-11-03T12:05:04.860Z,82.05
2022-11-03T12:08:21.202Z,82.57
2022-11-03T12:11:55.480Z,82.54
2022-11-03T12:14:58.559Z,82.44
2022-11-03T12:18:39.167Z,82.41
2022-11-03T12:21:48.746Z,82.27
2022-11-03T12:24:54.875Z,82.11
2022-11-03T12:27:57.107Z,82.22
2022-11-03T12:34:07.064Z,81.71
2022-11-03T12:37:09.621Z,82.16
2022-11-03T12:40:13.978Z,82.15
2022-11-03T12:43:16.780Z,82.34
2022-11-03T12:46:20.730Z,82.44
2022-11-03T12:49:23.322Z,82.38
2022-11-03T12:52:25.999Z,82.44
2022-11-03T12:58:30.751Z,82.44
2022-11-03T13:01:33.804Z,82.48
2022-11-03T13:04:36.641Z,82.73
2022-11-03T13:07:39.234Z,82.63
2022-11-03T13:10:41.496Z,82.43
2022-11-03T13:13:43.978Z,82.43
2022-11-03T13:16:46.263Z,82.41
2022-11-03T13:19:54.285Z,82.83
2022-11-03T13:22:57.038Z,82.78
2022-11-03T13:25:59.877Z,82.88
2022-11-03T13:29:02.220Z,83.42
2022-11-03T13:32:05.343Z,83.01
2022-11-03T13:35:13.292Z,82.80
2022-11-03T13:38:16.761Z,82.66
2022-11-03T13:41:18.966Z,82.54
2022-11-03T13:44:21.539Z,82.79
2022-11-03T13:47:34.347Z,82.50
2022-11-03T13:50:46.887Z,82.18
2022-11-03T14:00:34.880Z,82.73
2022-11-03T14:06:59.537Z,82.36
2022-11-03T14:10:04.002Z,82.93
2022-11-03T14:13:07.289Z,83.23
2022-11-03T14:16:10.151Z,83.14
2022-11-03T14:19:12.451Z,83.10
2022-11-03T14:22:15.006Z,83.25
2022-11-03T14:25:20.110Z,82.89
2022-11-03T14:28:26.120Z,82.92
2022-11-03T14:31:28.663Z,82.68
2022-11-03T14:34:31.178Z,81.94
2022-11-03T14:37:33.534Z,81.74
2022-11-03T14:40:54.460Z,81.37
2022-11-03T14:43:56.682Z,81.36
2022-11-03T14:47:01.514Z,81.00
2022-11-03T14:50:04.104Z,81.38
2022-11-03T14:53:06.744Z,81.68
2022-11-03T14:56:09.193Z,81.69
2022-11-03T14:59:11.716Z,81.72
2022-11-03T15:02:14.093Z,81.99
2022-11-03T15:05:35.414Z,82.61
2022-11-03T15:08:38.115Z,83.17
2022-11-03T15:11:41.685Z,83.37
2022-11-03T15:14:44.186Z,83.76
2022-11-03T15:17:47.000Z,84.17
2022-11-03T15:20:49.339Z,84.65
2022-11-03T15:27:15.006Z,85.96
2022-11-03T15:30:17.621Z,84.99
2022-11-03T15:33:19.913Z,85.45
2022-11-03T15:36:23.648Z,85.29
2022-11-03T15:39:25.878Z,86.09
2022-11-03T15:42:28.783Z,86.08
2022-11-03T15:45:31.050Z,86.41
2022-11-03T15:48:34.635Z,86.97
2022-11-03T15:51:37.155Z,86.63
2022-11-03T15:54:42.465Z,86.62
2022-11-03T15:57:45.070Z,86.58
2022-11-03T16:00:47.724Z,86.58
2022-11-03T16:03:50.306Z,86.75
2022-11-03T16:07:08.769Z,86.46
2022-11-03T16:10:12.102Z,86.64
2022-11-03T16:13:14.357Z,86.87
2022-11-03T16:16:16.888Z,86.92
2022-11-03T16:19:19.137Z,86.99
2022-11-03T16:22:21.645Z,87.69
2022-11-03T16:25:24.051Z,88.25
2022-11-03T16:28:26.535Z,88.26
2022-11-03T16:31:28.864Z,88.11
2022-11-03T16:34:31.377Z,88.08
2022-11-03T16:37:33.629Z,88.35
2022-11-03T16:40:36.121Z,88.60
2022-11-03T16:43:38.458Z,88.37
2022-11-03T16:46:41.015Z,88.59
2022-11-03T16:49:43.324Z,88.50
2022-11-03T16:52:47.864Z,88.27
2022-11-03T16:55:50.270Z,88.14
2022-11-03T16:58:52.861Z,87.77
2022-11-03T17:01:56.893Z,87.53
2022-11-03T17:04:59.615Z,87.40
2022-11-03T17:08:02.414Z,87.52
2022-11-03T17:11:05.081Z,87.46
2022-11-03T17:14:13.336Z,87.46
2022-11-03T17:17:15.930Z,87.50
2022-11-03T17:20:18.401Z,87.05
2022-11-03T17:23:20.956Z,86.78
2022-11-03T17:26:31.006Z,86.57
2022-11-03T17:29:40.633Z,86.43
2022-11-03T17:32:43.929Z,86.46
2022-11-03T17:35:46.938Z,86.26
2022-11-03T17:38:49.682Z,86.20
2022-11-03T17:41:52.195Z,86.13
2022-11-03T17:44:56.648Z,85.89
2022-11-03T17:47:59.238Z,85.92
2022-11-03T17:51:01.722Z,85.85
2022-11-03T17:54:06.626Z,86.12
2022-11-03T17:57:22.188Z,85.90
2022-11-03T18:00:25.146Z,86.11
2022-11-03T18:03:28.273Z,85.98
2022-11-03T18:06:30.654Z,85.97
2022-11-03T18:09:33.347Z,86.07
2022-11-03T18:12:57.535Z,85.95
2022-11-03T18:16:06.057Z,85.95
2022-11-03T18:19:13.589Z,85.81
2022-11-03T18:22:16.243Z,85.69
2022-11-03T18:25:21.390Z,85.66
2022-11-03T18:28:23.940Z,85.44
2022-11-03T18:31:42.541Z,85.43
2022-11-03T18:34:45.562Z,85.42
2022-11-03T18:37:48.279Z,85.36
2022-11-03T18:40:51.238Z,85.17
2022-11-03T18:43:53.471Z,85.17
2022-11-03T18:46:57.085Z,85.27
2022-11-03T18:49:59.337Z,85.10
2022-11-03T18:53:02.300Z,85.04
2022-11-03T18:56:09.876Z,84.84
2022-11-03T18:59:29.059Z,84.75
2022-11-03T19:02:31.477Z,84.82
2022-11-03T19:05:34.225Z,84.68
2022-11-03T19:08:36.699Z,84.69
2022-11-03T19:11:39.655Z,84.68
2022-11-03T19:14:47.794Z,84.71
2022-11-03T19:17:52.809Z,84.62
2022-11-03T19:20:55.064Z,84.55
2022-11-03T19:23:58.589Z,84.43
2022-11-03T19:27:03.385Z,84.32
2022-11-03T19:30:07.008Z,84.16
2022-11-03T19:33:19.234Z,84.08
2022-11-03T19:36:21.892Z,84.03
2022-11-03T19:39:40.755Z,83.97
2022-11-03T19:42:43.298Z,83.96
2022-11-03T19:45:45.504Z,83.81
2022-11-03T19:48:48.128Z,83.74
2022-11-03T19:51:50.400Z,83.81
2022-11-03T19:54:56.549Z,83.74
2022-11-03T19:58:19.985Z,83.62
2022-11-03T20:01:22.645Z,83.45
2022-11-03T20:04:26.203Z,83.20
2022-11-03T20:07:31.887Z,83.07
2022-11-03T20:10:35.995Z,82.94
2022-11-03T20:13:43.224Z,82.83
2022-11-03T20:16:45.727Z,82.68
2022-11-03T20:19:48.101Z,82.62
2022-11-03T20:22:55.389Z,82.59
2022-11-03T20:25:58.355Z,82.51
2022-11-03T20:29:01.893Z,82.50
2022-11-03T20:32:04.418Z,82.36
2022-11-03T20:35:07.216Z,82.24
2022-11-03T20:38:14.709Z,82.40
2022-11-03T20:41:17.448Z,82.39
2022-11-03T20:44:19.876Z,82.30
2022-11-03T20:47:22.650Z,82.28
2022-11-03T20:50:25.806Z,82.15
2022-11-03T20:53:28.369Z,82.14
2022-11-03T20:56:30.780Z,82.30
2022-11-03T20:59:37.706Z,82.03
2022-11-03T21:02:41.359Z,81.84
2022-11-03T21:05:46.993Z,81.83
2022-11-03T21:08:49.362Z,81.74
2022-11-03T21:11:52.552Z,81.61
2022-11-03T21:15:13.710Z,81.73
2022-11-03T21:18:35.180Z,81.51
2022-11-03T21:21:37.517Z,81.46
2022-11-03T21:24:40.275Z,81.29
2022-11-03T21:27:42.816Z,81.10
2022-11-03T21:30:47.668Z,81.14
2022-11-03T21:33:50.031Z,80.99
2022-11-03T21:36:52.546Z,81.15
2022-11-03T21:39:54.900Z,81.15
2022-11-03T21:43:15.992Z,81.08
2022-11-03T21:46:18.289Z,81.04
2022-11-03T21:49:39.395Z,81.09
2022-11-03T21:52:41.667Z,81.14
2022-11-03T21:55:47.048Z,81.29
2022-11-03T21:58:49.303Z,81.22
2022-11-03T22:01:55.115Z,81.20
2022-11-03T22:04:58.041Z,81.26
2022-11-03T22:08:00.321Z,81.42
2022-11-03T22:11:22.535Z,81.33
2022-11-03T22:14:26.621Z,81.41
2022-11-03T22:17:29.113Z,81.79
2022-11-03T22:20:50.294Z,81.68
2022-11-03T22:24:13.049Z,81.72
2022-11-03T22:27:15.289Z,81.64
2022-11-03T22:30:36.367Z,81.63
2022-11-03T22:33:58.514Z,81.68
2022-11-03T22:37:01.010Z,81.75
2022-11-03T22:40:23.094Z,81.68
2022-11-03T22:43:45.256Z,81.72
2022-11-03T22:46:47.438Z,81.89
2022-11-03T22:49:49.940Z,82.42
2022-11-03T22:52:52.220Z,82.47
2022-11-03T22:55:54.719Z,82.22
2022-11-03T22:58:57.005Z,82.37
2022-11-03T23:01:59.608Z,82.57
2022-11-03T23:05:01.951Z,82.56
2022-11-03T23:08:04.768Z,82.41
2022-11-03T23:11:21.155Z,82.34
2022-11-03T23:14:23.769Z,82.33
2022-11-03T23:17:45.980Z,82.28
2022-11-03T23:21:07.079Z,82.35
2022-11-03T23:24:27.694Z,82.47
2022-11-03T23:27:30.296Z,82.44
2022-11-03T23:30:32.470Z,82.84
2022-11-03T23:33:35.568Z,82.86
2022-11-03T23:36:38.032Z,82.81
2022-11-03T23:39:40.519Z,82.88
2022-11-03T23:42:42.714Z,83.41
2022-11-03T23:46:03.642Z,83.34
2022-11-03T23:49:06.706Z,83.53
2022-11-03T23:52:09.225Z,83.55
2022-11-03T23:55:11.460Z,83.73
2022-11-03T23:58:19.739Z,83.59
